sensor_id;sensor_type;location;lat;lon;timestamp;P1;durP1;ratioP1;P2;durP2;ratioP2
68140;SDS011;54941;52.220;104.306;2023-03-14T00:01:23;2.90;;;1.50;;
68140;SDS011;54941;52.220;104.306;2023-03-14T00:03:49;5.20;;;1.60;;
68140;SDS011;54941;52.220;104.306;2023-03-14T00:06:16;3.65;;;1.75;;
68140;SDS011;54941;52.220;104.306;2023-03-14T00:08:43;4.47;;;2.13;;
68140;SDS011;54941;52.220;104.306;2023-03-14T00:11:11;3.00;;;1.45;;
68140;SDS011;54941;52.220;104.306;2023-03-14T00:13:40;3.40;;;1.55;;
68140;SDS011;54941;52.220;104.306;2023-03-14T00:16:07;2.90;;;1.17;;
68140;SDS011;54941;52.220;104.306;2023-03-14T00:18:35;2.15;;;1.15;;
68140;SDS011;54941;52.220;104.306;2023-03-14T00:21:02;3.47;;;1.50;;
68140;SDS011;54941;52.220;104.306;2023-03-14T00:23:32;2.10;;;1.20;;
68140;SDS011;54941;52.220;104.306;2023-03-14T00:26:00;2.97;;;1.27;;
68140;SDS011;54941;52.220;104.306;2023-03-14T00:28:28;1.90;;;1.13;;
68140;SDS011;54941;52.220;104.306;2023-03-14T00:30:58;2.00;;;1.20;;
68140;SDS011;54941;52.220;104.306;2023-03-14T00:33:30;2.70;;;1.30;;
68140;SDS011;54941;52.220;104.306;2023-03-14T00:35:56;6.85;;;1.67;;
68140;SDS011;54941;52.220;104.306;2023-03-14T00:38:24;7.28;;;2.95;;
68140;SDS011;54941;52.220;104.306;2023-03-14T00:40:52;5.43;;;2.03;;
68140;SDS011;54941;52.220;104.306;2023-03-14T00:43:19;10.38;;;3.88;;
68140;SDS011;54941;52.220;104.306;2023-03-14T00:45:46;15.63;;;5.25;;
68140;SDS011;54941;52.220;104.306;2023-03-14T00:48:13;6.63;;;2.65;;
68140;SDS011;54941;52.220;104.306;2023-03-14T00:50:40;7.40;;;3.45;;
68140;SDS011;54941;52.220;104.306;2023-03-14T00:53:06;5.22;;;1.92;;
68140;SDS011;54941;52.220;104.306;2023-03-14T00:55:35;4.78;;;2.17;;
68140;SDS011;54941;52.220;104.306;2023-03-14T00:58:02;8.40;;;2.97;;
68140;SDS011;54941;52.220;104.306;2023-03-14T01:00:29;8.43;;;3.00;;
68140;SDS011;54941;52.220;104.306;2023-03-14T01:02:55;6.45;;;2.75;;
68140;SDS011;54941;52.220;104.306;2023-03-14T01:05:23;5.63;;;2.28;;
68140;SDS011;54941;52.220;104.306;2023-03-14T01:07:50;3.35;;;1.77;;
68140;SDS011;54941;52.220;104.306;2023-03-14T01:10:16;4.93;;;2.08;;
68140;SDS011;54941;52.220;104.306;2023-03-14T01:12:42;4.55;;;2.00;;
68140;SDS011;54941;52.220;104.306;2023-03-14T01:15:09;2.97;;;1.30;;
68140;SDS011;54941;52.220;104.306;2023-03-14T01:17:36;3.45;;;1.60;;
68140;SDS011;54941;52.220;104.306;2023-03-14T01:20:03;2.47;;;1.40;;
68140;SDS011;54941;52.220;104.306;2023-03-14T01:22:32;3.70;;;1.17;;
68140;SDS011;54941;52.220;104.306;2023-03-14T01:24:58;2.30;;;1.13;;
68140;SDS011;54941;52.220;104.306;2023-03-14T01:27:25;2.22;;;1.33;;
68140;SDS011;54941;52.220;104.306;2023-03-14T01:29:51;2.38;;;1.27;;
68140;SDS011;54941;52.220;104.306;2023-03-14T01:32:18;2.50;;;1.35;;
68140;SDS011;54941;52.220;104.306;2023-03-14T01:34:44;2.95;;;1.27;;
68140;SDS011;54941;52.220;104.306;2023-03-14T01:37:18;1.90;;;1.00;;
68140;SDS011;54941;52.220;104.306;2023-03-14T01:39:47;3.13;;;1.27;;
68140;SDS011;54941;52.220;104.306;2023-03-14T01:42:14;3.17;;;1.52;;
68140;SDS011;54941;52.220;104.306;2023-03-14T01:44:47;4.75;;;1.42;;
68140;SDS011;54941;52.220;104.306;2023-03-14T01:47:15;3.60;;;1.58;;
68140;SDS011;54941;52.220;104.306;2023-03-14T01:49:41;5.03;;;1.35;;
68140;SDS011;54941;52.220;104.306;2023-03-14T01:52:10;4.03;;;1.40;;
68140;SDS011;54941;52.220;104.306;2023-03-14T01:54:40;3.63;;;1.10;;
68140;SDS011;54941;52.220;104.306;2023-03-14T01:57:10;2.55;;;1.13;;
68140;SDS011;54941;52.220;104.306;2023-03-14T01:59:39;2.08;;;0.90;;
68140;SDS011;54941;52.220;104.306;2023-03-14T02:02:09;2.60;;;0.90;;
68140;SDS011;54941;52.220;104.306;2023-03-14T02:04:37;3.58;;;1.33;;
68140;SDS011;54941;52.220;104.306;2023-03-14T02:07:07;4.32;;;1.88;;
68140;SDS011;54941;52.220;104.306;2023-03-14T02:09:38;3.13;;;1.30;;
68140;SDS011;54941;52.220;104.306;2023-03-14T02:12:05;3.83;;;1.13;;
68140;SDS011;54941;52.220;104.306;2023-03-14T02:14:35;5.25;;;1.23;;
68140;SDS011;54941;52.220;104.306;2023-03-14T02:17:02;4.13;;;2.45;;
68140;SDS011;54941;52.220;104.306;2023-03-14T02:19:34;6.03;;;3.30;;
68140;SDS011;54941;52.220;104.306;2023-03-14T02:22:10;3.50;;;1.45;;
68140;SDS011;54941;52.220;104.306;2023-03-14T02:24:40;3.75;;;1.52;;
68140;SDS011;54941;52.220;104.306;2023-03-14T02:27:13;5.03;;;1.63;;
68140;SDS011;54941;52.220;104.306;2023-03-14T02:29:45;3.15;;;1.00;;
68140;SDS011;54941;52.220;104.306;2023-03-14T02:32:16;9.32;;;2.45;;
68140;SDS011;54941;52.220;104.306;2023-03-14T02:34:48;3.47;;;1.25;;
68140;SDS011;54941;52.220;104.306;2023-03-14T02:37:17;5.25;;;2.15;;
68140;SDS011;54941;52.220;104.306;2023-03-14T02:39:46;5.88;;;1.80;;
68140;SDS011;54941;52.220;104.306;2023-03-14T02:42:15;4.10;;;1.75;;
68140;SDS011;54941;52.220;104.306;2023-03-14T02:44:52;7.05;;;1.92;;
68140;SDS011;54941;52.220;104.306;2023-03-14T02:47:25;3.65;;;1.52;;
68140;SDS011;54941;52.220;104.306;2023-03-14T02:50:00;3.17;;;1.63;;
68140;SDS011;54941;52.220;104.306;2023-03-14T02:52:29;1.92;;;1.00;;
68140;SDS011;54941;52.220;104.306;2023-03-14T02:54:55;2.53;;;1.20;;
68140;SDS011;54941;52.220;104.306;2023-03-14T02:57:23;2.83;;;0.77;;
68140;SDS011;54941;52.220;104.306;2023-03-14T02:59:50;1.42;;;0.70;;
68140;SDS011;54941;52.220;104.306;2023-03-14T03:02:16;2.47;;;1.00;;
68140;SDS011;54941;52.220;104.306;2023-03-14T03:04:43;2.13;;;0.93;;
68140;SDS011;54941;52.220;104.306;2023-03-14T03:07:09;2.42;;;1.20;;
68140;SDS011;54941;52.220;104.306;2023-03-14T03:09:37;2.28;;;1.23;;
68140;SDS011;54941;52.220;104.306;2023-03-14T03:12:04;3.53;;;1.40;;
68140;SDS011;54941;52.220;104.306;2023-03-14T03:14:32;2.70;;;1.25;;
68140;SDS011;54941;52.220;104.306;2023-03-14T03:16:58;2.53;;;1.00;;
68140;SDS011;54941;52.220;104.306;2023-03-14T03:19:29;4.72;;;1.63;;
68140;SDS011;54941;52.220;104.306;2023-03-14T03:21:56;4.82;;;1.63;;
68140;SDS011;54941;52.220;104.306;2023-03-14T03:24:22;5.45;;;2.00;;
68140;SDS011;54941;52.220;104.306;2023-03-14T03:26:49;3.83;;;1.80;;
68140;SDS011;54941;52.220;104.306;2023-03-14T03:29:15;7.15;;;2.03;;
68140;SDS011;54941;52.220;104.306;2023-03-14T03:31:43;4.82;;;1.60;;
68140;SDS011;54941;52.220;104.306;2023-03-14T03:34:09;3.75;;;1.83;;
68140;SDS011;54941;52.220;104.306;2023-03-14T03:36:36;4.40;;;1.70;;
68140;SDS011;54941;52.220;104.306;2023-03-14T03:39:02;6.07;;;2.10;;
68140;SDS011;54941;52.220;104.306;2023-03-14T03:41:29;5.13;;;2.10;;
68140;SDS011;54941;52.220;104.306;2023-03-14T03:43:55;2.63;;;1.10;;
68140;SDS011;54941;52.220;104.306;2023-03-14T03:46:22;3.25;;;1.35;;
68140;SDS011;54941;52.220;104.306;2023-03-14T03:48:50;5.28;;;1.70;;
68140;SDS011;54941;52.220;104.306;2023-03-14T03:51:20;3.85;;;1.10;;
68140;SDS011;54941;52.220;104.306;2023-03-14T03:53:46;2.72;;;1.20;;
68140;SDS011;54941;52.220;104.306;2023-03-14T03:56:13;4.53;;;1.50;;
68140;SDS011;54941;52.220;104.306;2023-03-14T03:58:39;3.50;;;1.75;;
68140;SDS011;54941;52.220;104.306;2023-03-14T04:01:06;2.83;;;1.02;;
68140;SDS011;54941;52.220;104.306;2023-03-14T04:03:32;3.78;;;1.20;;
68140;SDS011;54941;52.220;104.306;2023-03-14T04:06:01;3.13;;;1.23;;
68140;SDS011;54941;52.220;104.306;2023-03-14T04:10:55;2.83;;;1.17;;
68140;SDS011;54941;52.220;104.306;2023-03-14T04:13:22;2.78;;;1.27;;
68140;SDS011;54941;52.220;104.306;2023-03-14T04:15:48;4.80;;;1.80;;
68140;SDS011;54941;52.220;104.306;2023-03-14T04:18:15;2.45;;;1.23;;
68140;SDS011;54941;52.220;104.306;2023-03-14T04:20:41;5.55;;;1.90;;
68140;SDS011;54941;52.220;104.306;2023-03-14T04:23:09;8.23;;;2.50;;
68140;SDS011;54941;52.220;104.306;2023-03-14T04:25:36;5.97;;;2.40;;
68140;SDS011;54941;52.220;104.306;2023-03-14T04:28:03;6.95;;;1.90;;
68140;SDS011;54941;52.220;104.306;2023-03-14T04:30:29;6.03;;;1.70;;
68140;SDS011;54941;52.220;104.306;2023-03-14T04:32:56;5.05;;;1.92;;
68140;SDS011;54941;52.220;104.306;2023-03-14T04:35:22;6.43;;;1.95;;
68140;SDS011;54941;52.220;104.306;2023-03-14T04:37:48;11.20;;;2.47;;
68140;SDS011;54941;52.220;104.306;2023-03-14T04:40:16;9.65;;;2.38;;
68140;SDS011;54941;52.220;104.306;2023-03-14T04:42:43;8.45;;;2.17;;
68140;SDS011;54941;52.220;104.306;2023-03-14T04:45:09;7.57;;;1.77;;
68140;SDS011;54941;52.220;104.306;2023-03-14T04:47:37;4.53;;;1.83;;
68140;SDS011;54941;52.220;104.306;2023-03-14T04:50:03;2.60;;;1.05;;
68140;SDS011;54941;52.220;104.306;2023-03-14T04:52:32;4.32;;;1.95;;
68140;SDS011;54941;52.220;104.306;2023-03-14T04:54:59;4.35;;;1.50;;
68140;SDS011;54941;52.220;104.306;2023-03-14T04:57:27;2.92;;;1.33;;
68140;SDS011;54941;52.220;104.306;2023-03-14T04:59:53;3.50;;;1.52;;
68140;SDS011;54941;52.220;104.306;2023-03-14T05:02:19;3.35;;;1.60;;
68140;SDS011;54941;52.220;104.306;2023-03-14T05:04:46;2.47;;;1.02;;
68140;SDS011;54941;52.220;104.306;2023-03-14T05:07:12;2.28;;;1.00;;
68140;SDS011;54941;52.220;104.306;2023-03-14T05:09:39;2.10;;;0.93;;
68140;SDS011;54941;52.220;104.306;2023-03-14T05:12:05;3.15;;;0.90;;
68140;SDS011;54941;52.220;104.306;2023-03-14T05:14:33;2.17;;;1.10;;
68140;SDS011;54941;52.220;104.306;2023-03-14T05:16:59;2.30;;;1.25;;
68140;SDS011;54941;52.220;104.306;2023-03-14T05:19:26;2.15;;;1.10;;
68140;SDS011;54941;52.220;104.306;2023-03-14T05:21:52;2.95;;;1.20;;
68140;SDS011;54941;52.220;104.306;2023-03-14T05:24:18;2.38;;;1.20;;
68140;SDS011;54941;52.220;104.306;2023-03-14T05:26:45;1.80;;;0.90;;
68140;SDS011;54941;52.220;104.306;2023-03-14T05:29:11;1.20;;;0.93;;
68140;SDS011;54941;52.220;104.306;2023-03-14T05:31:39;1.63;;;0.98;;
68140;SDS011;54941;52.220;104.306;2023-03-14T05:34:05;1.75;;;0.50;;
68140;SDS011;54941;52.220;104.306;2023-03-14T05:36:32;2.10;;;1.20;;
68140;SDS011;54941;52.220;104.306;2023-03-14T05:38:58;2.30;;;1.13;;
68140;SDS011;54941;52.220;104.306;2023-03-14T05:41:24;2.35;;;1.10;;
68140;SDS011;54941;52.220;104.306;2023-03-14T05:43:51;3.00;;;1.40;;
68140;SDS011;54941;52.220;104.306;2023-03-14T05:46:17;3.03;;;1.17;;
68140;SDS011;54941;52.220;104.306;2023-03-14T05:48:45;2.25;;;1.05;;
68140;SDS011;54941;52.220;104.306;2023-03-14T05:51:11;2.53;;;1.60;;
68140;SDS011;54941;52.220;104.306;2023-03-14T05:53:38;5.38;;;1.95;;
68140;SDS011;54941;52.220;104.306;2023-03-14T05:56:04;3.00;;;1.88;;
68140;SDS011;54941;52.220;104.306;2023-03-14T05:58:31;3.78;;;1.88;;
68140;SDS011;54941;52.220;104.306;2023-03-14T06:00:58;3.05;;;2.03;;
68140;SDS011;54941;52.220;104.306;2023-03-14T06:03:28;6.05;;;2.97;;
68140;SDS011;54941;52.220;104.306;2023-03-14T06:05:56;4.63;;;1.52;;
68140;SDS011;54941;52.220;104.306;2023-03-14T06:08:22;5.53;;;2.10;;
68140;SDS011;54941;52.220;104.306;2023-03-14T06:10:49;5.22;;;1.60;;
68140;SDS011;54941;52.220;104.306;2023-03-14T06:13:16;3.83;;;2.30;;
68140;SDS011;54941;52.220;104.306;2023-03-14T06:15:43;4.18;;;2.30;;
68140;SDS011;54941;52.220;104.306;2023-03-14T06:18:09;3.90;;;2.63;;
68140;SDS011;54941;52.220;104.306;2023-03-14T06:20:36;7.03;;;3.17;;
68140;SDS011;54941;52.220;104.306;2023-03-14T06:23:04;5.68;;;2.67;;
68140;SDS011;54941;52.220;104.306;2023-03-14T06:25:30;2.88;;;1.73;;
68140;SDS011;54941;52.220;104.306;2023-03-14T06:27:56;4.63;;;2.88;;
68140;SDS011;54941;52.220;104.306;2023-03-14T06:30:23;4.97;;;2.28;;
68140;SDS011;54941;52.220;104.306;2023-03-14T06:32:49;8.82;;;2.72;;
68140;SDS011;54941;52.220;104.306;2023-03-14T06:35:16;5.65;;;2.95;;
68140;SDS011;54941;52.220;104.306;2023-03-14T06:37:42;7.30;;;3.53;;
68140;SDS011;54941;52.220;104.306;2023-03-14T06:40:11;8.80;;;3.38;;
68140;SDS011;54941;52.220;104.306;2023-03-14T06:42:38;7.20;;;2.78;;
68140;SDS011;54941;52.220;104.306;2023-03-14T06:45:05;3.15;;;1.98;;
68140;SDS011;54941;52.220;104.306;2023-03-14T06:47:32;10.35;;;4.82;;
68140;SDS011;54941;52.220;104.306;2023-03-14T06:49:59;6.53;;;2.90;;
68140;SDS011;54941;52.220;104.306;2023-03-14T06:52:25;4.75;;;1.67;;
68140;SDS011;54941;52.220;104.306;2023-03-14T06:54:51;5.25;;;2.78;;
68140;SDS011;54941;52.220;104.306;2023-03-14T06:57:19;5.50;;;2.22;;
68140;SDS011;54941;52.220;104.306;2023-03-14T06:59:46;5.22;;;2.67;;
68140;SDS011;54941;52.220;104.306;2023-03-14T07:02:12;4.93;;;2.30;;
68140;SDS011;54941;52.220;104.306;2023-03-14T07:04:41;3.70;;;1.55;;
68140;SDS011;54941;52.220;104.306;2023-03-14T07:07:08;3.97;;;2.40;;
68140;SDS011;54941;52.220;104.306;2023-03-14T07:09:34;3.92;;;2.50;;
68140;SDS011;54941;52.220;104.306;2023-03-14T07:12:01;6.07;;;3.72;;
68140;SDS011;54941;52.220;104.306;2023-03-14T07:14:29;4.85;;;2.83;;
68140;SDS011;54941;52.220;104.306;2023-03-14T07:16:56;3.45;;;2.15;;
68140;SDS011;54941;52.220;104.306;2023-03-14T07:19:22;3.75;;;2.15;;
68140;SDS011;54941;52.220;104.306;2023-03-14T07:21:49;9.50;;;2.47;;
68140;SDS011;54941;52.220;104.306;2023-03-14T07:24:15;2.95;;;1.52;;
68140;SDS011;54941;52.220;104.306;2023-03-14T07:26:41;6.78;;;4.15;;
68140;SDS011;54941;52.220;104.306;2023-03-14T07:29:08;3.42;;;2.00;;
68140;SDS011;54941;52.220;104.306;2023-03-14T07:31:36;6.00;;;2.00;;
68140;SDS011;54941;52.220;104.306;2023-03-14T07:34:02;5.32;;;2.08;;
68140;SDS011;54941;52.220;104.306;2023-03-14T07:36:28;3.20;;;2.38;;
68140;SDS011;54941;52.220;104.306;2023-03-14T07:38:55;6.70;;;2.63;;
68140;SDS011;54941;52.220;104.306;2023-03-14T07:41:21;10.82;;;1.83;;
68140;SDS011;54941;52.220;104.306;2023-03-14T07:43:48;7.63;;;3.08;;
68140;SDS011;54941;52.220;104.306;2023-03-14T07:46:14;5.32;;;2.30;;
68140;SDS011;54941;52.220;104.306;2023-03-14T07:48:42;6.93;;;2.92;;
68140;SDS011;54941;52.220;104.306;2023-03-14T07:51:09;6.07;;;2.42;;
68140;SDS011;54941;52.220;104.306;2023-03-14T07:53:35;5.32;;;2.53;;
68140;SDS011;54941;52.220;104.306;2023-03-14T07:56:01;4.10;;;2.13;;
68140;SDS011;54941;52.220;104.306;2023-03-14T07:58:28;6.80;;;2.65;;
68140;SDS011;54941;52.220;104.306;2023-03-14T08:00:54;7.82;;;3.40;;
68140;SDS011;54941;52.220;104.306;2023-03-14T08:03:21;8.05;;;3.88;;
68140;SDS011;54941;52.220;104.306;2023-03-14T08:05:49;9.60;;;3.60;;
68140;SDS011;54941;52.220;104.306;2023-03-14T08:08:16;10.13;;;3.65;;
68140;SDS011;54941;52.220;104.306;2023-03-14T08:10:42;7.25;;;3.05;;
68140;SDS011;54941;52.220;104.306;2023-03-14T08:13:09;8.30;;;2.72;;
68140;SDS011;54941;52.220;104.306;2023-03-14T08:15:38;7.25;;;2.90;;
68140;SDS011;54941;52.220;104.306;2023-03-14T08:18:05;7.40;;;3.20;;
68140;SDS011;54941;52.220;104.306;2023-03-14T08:20:31;8.57;;;2.55;;
68140;SDS011;54941;52.220;104.306;2023-03-14T08:23:02;7.05;;;2.92;;
68140;SDS011;54941;52.220;104.306;2023-03-14T08:25:29;8.52;;;2.58;;
68140;SDS011;54941;52.220;104.306;2023-03-14T08:27:55;4.47;;;2.08;;
68140;SDS011;54941;52.220;104.306;2023-03-14T08:30:22;8.02;;;2.90;;
68140;SDS011;54941;52.220;104.306;2023-03-14T08:32:51;5.55;;;2.75;;
68140;SDS011;54941;52.220;104.306;2023-03-14T08:35:17;10.30;;;2.85;;
68140;SDS011;54941;52.220;104.306;2023-03-14T08:37:44;3.70;;;1.85;;
68140;SDS011;54941;52.220;104.306;2023-03-14T08:40:12;7.65;;;2.72;;
68140;SDS011;54941;52.220;104.306;2023-03-14T08:42:39;4.38;;;1.90;;
68140;SDS011;54941;52.220;104.306;2023-03-14T08:45:07;9.65;;;3.17;;
68140;SDS011;54941;52.220;104.306;2023-03-14T08:47:34;9.90;;;3.20;;
68140;SDS011;54941;52.220;104.306;2023-03-14T08:50:01;11.23;;;3.58;;
68140;SDS011;54941;52.220;104.306;2023-03-14T08:52:27;3.55;;;1.85;;
68140;SDS011;54941;52.220;104.306;2023-03-14T08:54:54;7.00;;;2.72;;
68140;SDS011;54941;52.220;104.306;2023-03-14T08:57:22;7.28;;;3.58;;
68140;SDS011;54941;52.220;104.306;2023-03-14T08:59:50;11.23;;;2.95;;
68140;SDS011;54941;52.220;104.306;2023-03-14T09:02:17;8.35;;;2.95;;
68140;SDS011;54941;52.220;104.306;2023-03-14T09:04:43;6.88;;;2.90;;
68140;SDS011;54941;52.220;104.306;2023-03-14T09:07:09;7.35;;;3.50;;
68140;SDS011;54941;52.220;104.306;2023-03-14T09:09:36;7.30;;;3.03;;
68140;SDS011;54941;52.220;104.306;2023-03-14T09:12:02;4.90;;;2.45;;
68140;SDS011;54941;52.220;104.306;2023-03-14T09:14:31;6.82;;;2.80;;
68140;SDS011;54941;52.220;104.306;2023-03-14T09:16:57;5.03;;;2.50;;
68140;SDS011;54941;52.220;104.306;2023-03-14T09:19:23;7.25;;;3.08;;
68140;SDS011;54941;52.220;104.306;2023-03-14T09:21:50;11.13;;;3.20;;
68140;SDS011;54941;52.220;104.306;2023-03-14T09:24:16;10.57;;;3.10;;
68140;SDS011;54941;52.220;104.306;2023-03-14T09:26:44;7.43;;;3.33;;
68140;SDS011;54941;52.220;104.306;2023-03-14T09:29:10;6.28;;;2.28;;
68140;SDS011;54941;52.220;104.306;2023-03-14T09:31:38;10.30;;;3.58;;
68140;SDS011;54941;52.220;104.306;2023-03-14T09:34:04;5.10;;;2.47;;
68140;SDS011;54941;52.220;104.306;2023-03-14T09:36:32;7.05;;;2.63;;
68140;SDS011;54941;52.220;104.306;2023-03-14T09:38:59;5.57;;;2.42;;
68140;SDS011;54941;52.220;104.306;2023-03-14T09:41:26;5.88;;;2.50;;
68140;SDS011;54941;52.220;104.306;2023-03-14T09:43:58;6.45;;;2.45;;
68140;SDS011;54941;52.220;104.306;2023-03-14T09:46:28;6.00;;;2.80;;
68140;SDS011;54941;52.220;104.306;2023-03-14T09:48:58;4.90;;;2.15;;
68140;SDS011;54941;52.220;104.306;2023-03-14T09:51:25;3.75;;;2.13;;
68140;SDS011;54941;52.220;104.306;2023-03-14T09:53:52;4.70;;;2.75;;
68140;SDS011;54941;52.220;104.306;2023-03-14T09:56:19;5.00;;;2.20;;
68140;SDS011;54941;52.220;104.306;2023-03-14T09:58:49;5.60;;;1.83;;
68140;SDS011;54941;52.220;104.306;2023-03-14T10:01:20;6.35;;;2.05;;
68140;SDS011;54941;52.220;104.306;2023-03-14T10:03:50;8.75;;;2.90;;
68140;SDS011;54941;52.220;104.306;2023-03-14T10:08:51;5.07;;;2.13;;
68140;SDS011;54941;52.220;104.306;2023-03-14T10:11:20;4.32;;;1.95;;
68140;SDS011;54941;52.220;104.306;2023-03-14T10:13:47;4.25;;;1.73;;
68140;SDS011;54941;52.220;104.306;2023-03-14T10:16:16;5.28;;;1.88;;
68140;SDS011;54941;52.220;104.306;2023-03-14T10:18:53;4.88;;;2.08;;
68140;SDS011;54941;52.220;104.306;2023-03-14T10:21:29;3.50;;;1.73;;
68140;SDS011;54941;52.220;104.306;2023-03-14T10:24:18;3.92;;;1.88;;
68140;SDS011;54941;52.220;104.306;2023-03-14T10:26:49;4.70;;;1.98;;
68140;SDS011;54941;52.220;104.306;2023-03-14T10:29:18;4.60;;;2.20;;
68140;SDS011;54941;52.220;104.306;2023-03-14T10:31:46;3.65;;;2.08;;
68140;SDS011;54941;52.220;104.306;2023-03-14T10:34:16;4.93;;;2.17;;
68140;SDS011;54941;52.220;104.306;2023-03-14T10:36:48;3.38;;;1.90;;
68140;SDS011;54941;52.220;104.306;2023-03-14T10:39:26;3.40;;;2.30;;
68140;SDS011;54941;52.220;104.306;2023-03-14T10:42:01;4.13;;;2.15;;
68140;SDS011;54941;52.220;104.306;2023-03-14T10:44:30;5.57;;;2.20;;
68140;SDS011;54941;52.220;104.306;2023-03-14T10:46:58;5.78;;;2.80;;
68140;SDS011;54941;52.220;104.306;2023-03-14T10:49:28;6.65;;;2.50;;
68140;SDS011;54941;52.220;104.306;2023-03-14T10:51:57;5.93;;;2.58;;
68140;SDS011;54941;52.220;104.306;2023-03-14T10:54:29;4.93;;;2.60;;
68140;SDS011;54941;52.220;104.306;2023-03-14T10:56:56;7.63;;;3.38;;
68140;SDS011;54941;52.220;104.306;2023-03-14T10:59:25;7.40;;;3.45;;
68140;SDS011;54941;52.220;104.306;2023-03-14T11:01:55;8.73;;;3.88;;
68140;SDS011;54941;52.220;104.306;2023-03-14T11:04:29;6.75;;;4.38;;
68140;SDS011;54941;52.220;104.306;2023-03-14T11:07:13;7.80;;;3.75;;
68140;SDS011;54941;52.220;104.306;2023-03-14T11:09:45;5.88;;;3.65;;
68140;SDS011;54941;52.220;104.306;2023-03-14T11:12:24;6.75;;;2.90;;
68140;SDS011;54941;52.220;104.306;2023-03-14T11:15:04;8.05;;;3.60;;
68140;SDS011;54941;52.220;104.306;2023-03-14T11:17:38;8.63;;;2.95;;
68140;SDS011;54941;52.220;104.306;2023-03-14T11:20:28;8.73;;;3.17;;
68140;SDS011;54941;52.220;104.306;2023-03-14T11:23:04;5.85;;;2.85;;
68140;SDS011;54941;52.220;104.306;2023-03-14T11:25:38;7.53;;;3.17;;
68140;SDS011;54941;52.220;104.306;2023-03-14T11:28:14;6.38;;;3.15;;
68140;SDS011;54941;52.220;104.306;2023-03-14T11:30:50;4.25;;;2.50;;
68140;SDS011;54941;52.220;104.306;2023-03-14T11:33:18;3.97;;;2.33;;
68140;SDS011;54941;52.220;104.306;2023-03-14T11:35:49;6.80;;;2.55;;
68140;SDS011;54941;52.220;104.306;2023-03-14T11:38:30;5.85;;;2.97;;
68140;SDS011;54941;52.220;104.306;2023-03-14T11:41:03;7.78;;;3.70;;
68140;SDS011;54941;52.220;104.306;2023-03-14T11:43:35;6.57;;;3.03;;
68140;SDS011;54941;52.220;104.306;2023-03-14T11:46:05;6.38;;;3.45;;
68140;SDS011;54941;52.220;104.306;2023-03-14T11:48:40;9.27;;;4.57;;
68140;SDS011;54941;52.220;104.306;2023-03-14T11:51:13;7.95;;;2.97;;
68140;SDS011;54941;52.220;104.306;2023-03-14T11:53:53;6.40;;;2.75;;
68140;SDS011;54941;52.220;104.306;2023-03-14T11:56:26;3.95;;;2.42;;
68140;SDS011;54941;52.220;104.306;2023-03-14T11:58:58;8.25;;;4.40;;
68140;SDS011;54941;52.220;104.306;2023-03-14T12:01:32;9.18;;;3.55;;
68140;SDS011;54941;52.220;104.306;2023-03-14T12:04:09;6.95;;;3.53;;
68140;SDS011;54941;52.220;104.306;2023-03-14T12:06:48;6.45;;;3.10;;
68140;SDS011;54941;52.220;104.306;2023-03-14T12:09:17;7.15;;;3.85;;
68140;SDS011;54941;52.220;104.306;2023-03-14T12:11:47;11.13;;;3.97;;
68140;SDS011;54941;52.220;104.306;2023-03-14T12:14:20;8.55;;;3.95;;
68140;SDS011;54941;52.220;104.306;2023-03-14T12:16:49;8.75;;;3.60;;
68140;SDS011;54941;52.220;104.306;2023-03-14T12:19:31;8.18;;;3.88;;
68140;SDS011;54941;52.220;104.306;2023-03-14T12:22:00;6.25;;;2.72;;
68140;SDS011;54941;52.220;104.306;2023-03-14T12:24:35;6.32;;;2.72;;
68140;SDS011;54941;52.220;104.306;2023-03-14T12:27:04;6.32;;;2.75;;
68140;SDS011;54941;52.220;104.306;2023-03-14T12:29:32;8.00;;;3.70;;
68140;SDS011;54941;52.220;104.306;2023-03-14T12:32:08;5.93;;;2.95;;
68140;SDS011;54941;52.220;104.306;2023-03-14T12:34:47;5.85;;;3.13;;
68140;SDS011;54941;52.220;104.306;2023-03-14T12:37:17;6.75;;;3.95;;
68140;SDS011;54941;52.220;104.306;2023-03-14T12:40:03;6.65;;;3.70;;
68140;SDS011;54941;52.220;104.306;2023-03-14T12:42:41;6.60;;;3.38;;
68140;SDS011;54941;52.220;104.306;2023-03-14T12:45:23;6.63;;;3.30;;
68140;SDS011;54941;52.220;104.306;2023-03-14T12:48:02;6.97;;;4.00;;
68140;SDS011;54941;52.220;104.306;2023-03-14T12:50:45;7.30;;;3.60;;
68140;SDS011;54941;52.220;104.306;2023-03-14T12:53:42;7.65;;;3.55;;
68140;SDS011;54941;52.220;104.306;2023-03-14T12:56:26;5.68;;;3.15;;
68140;SDS011;54941;52.220;104.306;2023-03-14T12:59:07;6.50;;;3.45;;
68140;SDS011;54941;52.220;104.306;2023-03-14T13:01:53;5.22;;;3.03;;
68140;SDS011;54941;52.220;104.306;2023-03-14T13:04:26;7.95;;;3.40;;
68140;SDS011;54941;52.220;104.306;2023-03-14T13:06:55;6.80;;;2.88;;
68140;SDS011;54941;52.220;104.306;2023-03-14T13:09:36;6.30;;;3.50;;
68140;SDS011;54941;52.220;104.306;2023-03-14T13:14:49;7.30;;;3.90;;
68140;SDS011;54941;52.220;104.306;2023-03-14T13:17:19;6.72;;;3.22;;
68140;SDS011;54941;52.220;104.306;2023-03-14T13:19:50;7.40;;;3.00;;
68140;SDS011;54941;52.220;104.306;2023-03-14T13:22:22;7.18;;;3.63;;
68140;SDS011;54941;52.220;104.306;2023-03-14T13:24:58;10.77;;;4.15;;
68140;SDS011;54941;52.220;104.306;2023-03-14T13:27:29;7.75;;;3.95;;
68140;SDS011;54941;52.220;104.306;2023-03-14T13:29:59;10.40;;;4.75;;
68140;SDS011;54941;52.220;104.306;2023-03-14T13:32:31;7.65;;;4.15;;
68140;SDS011;54941;52.220;104.306;2023-03-14T13:34:58;7.97;;;4.00;;
68140;SDS011;54941;52.220;104.306;2023-03-14T13:37:25;7.07;;;3.90;;
68140;SDS011;54941;52.220;104.306;2023-03-14T13:39:52;7.55;;;4.28;;
68140;SDS011;54941;52.220;104.306;2023-03-14T13:42:19;7.15;;;3.92;;
68140;SDS011;54941;52.220;104.306;2023-03-14T13:44:47;8.02;;;3.83;;
68140;SDS011;54941;52.220;104.306;2023-03-14T13:47:14;8.88;;;4.30;;
68140;SDS011;54941;52.220;104.306;2023-03-14T13:49:42;7.88;;;4.30;;
68140;SDS011;54941;52.220;104.306;2023-03-14T13:52:23;8.32;;;4.22;;
68140;SDS011;54941;52.220;104.306;2023-03-14T13:54:54;11.15;;;5.50;;
68140;SDS011;54941;52.220;104.306;2023-03-14T13:57:21;9.73;;;4.45;;
68140;SDS011;54941;52.220;104.306;2023-03-14T13:59:59;7.65;;;3.50;;
68140;SDS011;54941;52.220;104.306;2023-03-14T14:02:31;9.60;;;3.83;;
68140;SDS011;54941;52.220;104.306;2023-03-14T14:07:26;8.55;;;4.00;;
68140;SDS011;54941;52.220;104.306;2023-03-14T14:09:54;8.38;;;4.30;;
68140;SDS011;54941;52.220;104.306;2023-03-14T14:12:25;8.32;;;4.70;;
68140;SDS011;54941;52.220;104.306;2023-03-14T14:15:03;8.98;;;4.32;;
68140;SDS011;54941;52.220;104.306;2023-03-14T14:17:38;6.50;;;3.38;;
68140;SDS011;54941;52.220;104.306;2023-03-14T14:20:08;8.32;;;4.38;;
68140;SDS011;54941;52.220;104.306;2023-03-14T14:22:39;7.43;;;4.03;;
68140;SDS011;54941;52.220;104.306;2023-03-14T14:25:06;8.95;;;4.00;;
68140;SDS011;54941;52.220;104.306;2023-03-14T14:27:39;10.07;;;4.03;;
68140;SDS011;54941;52.220;104.306;2023-03-14T14:33:10;6.68;;;4.05;;
68140;SDS011;54941;52.220;104.306;2023-03-14T14:35:49;10.13;;;3.72;;
68140;SDS011;54941;52.220;104.306;2023-03-14T14:38:17;6.18;;;3.55;;
68140;SDS011;54941;52.220;104.306;2023-03-14T14:40:45;10.35;;;4.80;;
68140;SDS011;54941;52.220;104.306;2023-03-14T14:43:15;10.80;;;5.07;;
68140;SDS011;54941;52.220;104.306;2023-03-14T14:45:46;7.05;;;3.90;;